createdAt,value
2022-09-14T00:01:25.725Z,14.72
2022-09-14T00:03:54.897Z,14.94
2022-09-14T00:06:22.348Z,14.80
2022-09-14T00:08:54.115Z,14.86
2022-09-14T00:11:27.192Z,14.97
2022-09-14T00:13:54.805Z,15.18
2022-09-14T00:16:24.758Z,15.18
2022-09-14T00:18:57.819Z,15.10
2022-09-14T00:21:27.274Z,15.26
2022-09-14T00:23:53.852Z,15.24
2022-09-14T00:26:23.157Z,15.31
2022-09-14T00:28:55.114Z,15.08
2022-09-14T00:31:22.758Z,15.14
2022-09-14T00:33:51.233Z,15.22
2022-09-14T00:36:27.617Z,15.51
2022-09-14T00:38:56.703Z,15.41
2022-09-14T00:41:31.814Z,15.25
2022-09-14T00:44:11.333Z,15.16
2022-09-14T00:46:49.620Z,15.21
2022-09-14T00:49:20.709Z,14.90
2022-09-14T00:52:05.312Z,15.06
2022-09-14T00:54:32.057Z,15.18
2022-09-14T00:57:02.385Z,15.24
2022-09-14T00:59:31.445Z,15.28
2022-09-14T01:01:58.410Z,15.34
2022-09-14T01:04:28.715Z,15.14
2022-09-14T01:07:20.098Z,15.29
2022-09-14T01:09:54.767Z,15.36
2022-09-14T01:12:30.224Z,15.47
2022-09-14T01:14:59.890Z,15.47
2022-09-14T01:17:38.766Z,15.47
2022-09-14T01:20:14.349Z,15.40
2022-09-14T01:23:05.404Z,15.05
2022-09-14T01:26:11.323Z,15.27
2022-09-14T01:28:51.190Z,15.39
2022-09-14T01:31:52.189Z,15.31
2022-09-14T01:34:40.770Z,15.37
2022-09-14T01:37:13.286Z,15.48
2022-09-14T01:39:47.965Z,15.39
2022-09-14T01:42:18.762Z,15.39
2022-09-14T01:44:49.461Z,15.21
2022-09-14T01:47:28.997Z,15.23
2022-09-14T01:50:04.187Z,15.40
2022-09-14T01:52:39.312Z,15.43
2022-09-14T01:55:09.804Z,15.44
2022-09-14T01:57:43.197Z,15.48
2022-09-14T02:00:16.342Z,15.24
2022-09-14T02:02:58.840Z,15.43
2022-09-14T02:05:41.142Z,15.34
2022-09-14T02:08:08.907Z,15.11
2022-09-14T02:10:35.707Z,15.28
2022-09-14T02:13:02.681Z,15.58
2022-09-14T02:15:35.039Z,15.30
2022-09-14T02:18:01.881Z,15.44
2022-09-14T02:20:36.347Z,15.49
2022-09-14T02:23:03.493Z,15.06
2022-09-14T02:25:36.578Z,14.99
2022-09-14T02:28:04.383Z,15.38
2022-09-14T02:30:37.308Z,15.00
2022-09-14T02:33:19.612Z,15.25
2022-09-14T02:35:54.957Z,15.48
2022-09-14T02:38:32.736Z,15.16
2022-09-14T02:41:25.949Z,15.22
2022-09-14T02:44:11.809Z,15.26
2022-09-14T02:47:05.391Z,15.35
2022-09-14T02:50:03.714Z,15.34
2022-09-14T02:52:33.454Z,15.47
2022-09-14T02:55:07.550Z,15.08
2022-09-14T02:57:59.819Z,15.30
2022-09-14T03:00:27.961Z,15.29
2022-09-14T03:02:54.636Z,15.26
2022-09-14T03:05:21.619Z,14.92
2022-09-14T03:07:51.316Z,15.16
2022-09-14T03:10:17.978Z,15.15
2022-09-14T03:12:44.708Z,15.18
2022-09-14T03:15:11.486Z,15.18
2022-09-14T03:17:38.513Z,15.27
2022-09-14T03:20:05.677Z,15.38
2022-09-14T03:22:35.290Z,15.41
2022-09-14T03:25:02.445Z,15.26
2022-09-14T03:27:29.268Z,15.18
2022-09-14T03:29:56.100Z,15.36
2022-09-14T03:32:22.923Z,15.36
2022-09-14T03:34:49.665Z,15.39
2022-09-14T03:37:16.766Z,15.22
2022-09-14T03:39:43.708Z,15.28
2022-09-14T03:42:10.558Z,15.27
2022-09-14T03:44:37.702Z,15.46
2022-09-14T03:47:04.446Z,15.26
2022-09-14T03:49:31.334Z,15.26
2022-09-14T03:51:59.929Z,15.18
2022-09-14T03:54:27.464Z,15.19
2022-09-14T03:56:54.814Z,15.29
2022-09-14T03:59:22.176Z,14.92
2022-09-14T04:01:48.898Z,14.87
2022-09-14T04:04:16.382Z,14.74
2022-09-14T04:06:45.152Z,14.88
2022-09-14T04:09:12.312Z,14.97
2022-09-14T04:11:39.219Z,14.82
2022-09-14T04:14:07.731Z,14.71
2022-09-14T04:16:34.541Z,15.03
2022-09-14T04:19:01.533Z,14.73
2022-09-14T04:21:31.489Z,14.60
2022-09-14T04:24:15.862Z,14.64
2022-09-14T04:26:48.745Z,14.63
2022-09-14T04:29:17.174Z,14.80
2022-09-14T04:31:48.189Z,14.78
2022-09-14T04:34:17.375Z,14.85
2022-09-14T04:36:44.416Z,14.75
2022-09-14T04:39:13.862Z,14.85
2022-09-14T04:41:43.425Z,14.80
2022-09-14T04:44:10.566Z,14.88
2022-09-14T04:46:46.506Z,14.88
2022-09-14T04:49:21.860Z,14.94
2022-09-14T04:51:48.861Z,14.77
2022-09-14T04:54:17.612Z,14.93
2022-09-14T04:56:44.882Z,14.99
2022-09-14T04:59:12.396Z,15.05
2022-09-14T05:01:49.193Z,15.05
2022-09-14T05:04:17.410Z,15.09
2022-09-14T05:06:44.458Z,15.15
2022-09-14T05:09:14.280Z,15.08
2022-09-14T05:11:49.726Z,15.23
2022-09-14T05:14:16.780Z,15.20
2022-09-14T05:16:48.602Z,15.30
2022-09-14T05:19:19.007Z,15.38
2022-09-14T05:21:47.789Z,15.29
2022-09-14T05:24:19.156Z,15.41
2022-09-14T05:26:46.519Z,15.34
2022-09-14T05:29:16.323Z,15.04
2022-09-14T05:31:44.134Z,15.33
2022-09-14T05:34:14.754Z,15.19
2022-09-14T05:36:41.433Z,14.91
2022-09-14T05:39:10.740Z,15.10
2022-09-14T05:41:38.048Z,15.15
2022-09-14T05:44:05.735Z,15.01
2022-09-14T05:46:32.935Z,14.93
2022-09-14T05:49:06.465Z,14.80
2022-09-14T05:51:33.412Z,14.74
2022-09-14T05:54:00.919Z,15.12
2022-09-14T05:56:29.894Z,15.18
2022-09-14T05:58:56.636Z,14.82
2022-09-14T06:01:25.693Z,15.13
2022-09-14T06:03:57.529Z,15.35
2022-09-14T06:06:24.389Z,15.08
2022-09-14T06:08:56.302Z,15.35
2022-09-14T06:11:26.701Z,15.23
2022-09-14T06:13:55.062Z,15.20
2022-09-14T06:16:23.837Z,15.09
2022-09-14T06:18:51.174Z,15.23
2022-09-14T06:21:21.015Z,15.31
2022-09-14T06:23:49.203Z,15.07
2022-09-14T06:26:16.560Z,15.24
2022-09-14T06:28:47.061Z,14.99
2022-09-14T06:31:15.225Z,14.96
2022-09-14T06:33:47.537Z,15.28
2022-09-14T06:36:17.920Z,15.27
2022-09-14T06:38:44.677Z,14.91
2022-09-14T06:41:13.693Z,14.95
2022-09-14T06:43:42.191Z,15.23
2022-09-14T06:46:19.189Z,15.12
2022-09-14T06:48:49.190Z,15.28
2022-09-14T06:51:25.215Z,15.41
2022-09-14T06:53:53.828Z,15.12
2022-09-14T06:56:21.334Z,15.24
2022-09-14T06:58:49.889Z,15.56
2022-09-14T07:01:19.910Z,15.51
2022-09-14T07:03:47.919Z,15.70
2022-09-14T07:06:19.982Z,15.60
2022-09-14T07:08:47.878Z,15.57
2022-09-14T07:11:19.385Z,15.59
2022-09-14T07:13:51.299Z,15.64
2022-09-14T07:16:18.407Z,15.64
2022-09-14T07:18:45.249Z,15.34
2022-09-14T07:21:18.137Z,15.41
2022-09-14T07:23:47.933Z,15.48
2022-09-14T07:26:22.773Z,15.52
2022-09-14T07:28:54.525Z,15.42
2022-09-14T07:31:30.576Z,15.43
2022-09-14T07:34:05.770Z,15.76
2022-09-14T07:36:36.420Z,15.63
2022-09-14T07:39:06.103Z,15.87
2022-09-14T07:41:34.330Z,15.92
2022-09-14T07:44:03.585Z,15.11
2022-09-14T07:46:35.525Z,15.22
2022-09-14T07:49:05.336Z,15.49
2022-09-14T07:51:35.251Z,15.31
2022-09-14T07:54:02.850Z,15.27
2022-09-14T07:56:30.206Z,15.34
2022-09-14T07:59:17.239Z,15.69
2022-09-14T08:01:47.102Z,15.50
2022-09-14T08:04:14.048Z,15.41
2022-09-14T08:06:48.060Z,15.50
2022-09-14T08:09:15.169Z,15.19
2022-09-14T08:11:41.770Z,15.34
2022-09-14T08:14:11.474Z,15.39
2022-09-14T08:16:39.235Z,15.28
2022-09-14T08:19:20.185Z,15.48
2022-09-14T08:21:47.907Z,15.53
2022-09-14T08:24:25.878Z,15.62
2022-09-14T08:26:54.882Z,15.69
2022-09-14T08:29:44.109Z,15.52
2022-09-14T08:32:14.256Z,15.50
2022-09-14T08:34:43.226Z,16.12
2022-09-14T08:37:20.626Z,15.87
2022-09-14T08:39:51.494Z,15.46
2022-09-14T08:42:24.854Z,15.40
2022-09-14T08:45:01.915Z,15.55
2022-09-14T08:47:36.357Z,15.83
2022-09-14T08:50:15.026Z,15.92
2022-09-14T08:52:50.790Z,16.16
2022-09-14T08:55:47.234Z,16.14
2022-09-14T08:58:21.744Z,16.01
2022-09-14T09:01:00.154Z,15.52
2022-09-14T09:03:42.137Z,15.67
2022-09-14T09:06:37.460Z,15.83
2022-09-14T09:09:12.491Z,15.74
2022-09-14T09:11:49.404Z,15.74
2022-09-14T09:14:31.269Z,16.11
2022-09-14T09:17:04.274Z,16.26
2022-09-14T09:19:59.661Z,16.09
2022-09-14T09:22:30.242Z,16.14
2022-09-14T09:25:03.720Z,16.04
2022-09-14T09:27:30.613Z,16.00
2022-09-14T09:29:57.413Z,16.22
2022-09-14T09:32:28.981Z,16.17
2022-09-14T09:35:24.889Z,16.45
2022-09-14T09:38:15.899Z,16.33
2022-09-14T09:40:48.133Z,16.22
2022-09-14T09:43:45.396Z,16.25
2022-09-14T09:46:08.600Z,16.06
2022-09-14T09:48:38.417Z,16.12
2022-09-14T09:51:11.619Z,15.99
2022-09-14T09:53:51.760Z,16.33
2022-09-14T09:56:24.425Z,16.32
2022-09-14T09:58:54.189Z,16.46
2022-09-14T10:01:36.849Z,16.43
2022-09-14T10:04:22.730Z,16.28
2022-09-14T10:06:58.387Z,16.61
2022-09-14T10:09:28.913Z,16.57
2022-09-14T10:12:01.854Z,16.28
2022-09-14T10:14:35.093Z,16.27
2022-09-14T10:17:22.012Z,16.90
2022-09-14T10:20:10.311Z,16.21
2022-09-14T10:22:50.885Z,16.75
2022-09-14T10:28:20.436Z,16.46
2022-09-14T10:30:56.515Z,16.49
2022-09-14T10:33:23.909Z,16.46
2022-09-14T10:36:21.648Z,16.75
2022-09-14T10:39:30.367Z,16.52
2022-09-14T10:42:36.608Z,16.36
2022-09-14T10:45:21.969Z,16.74
2022-09-14T10:48:08.922Z,16.15
2022-09-14T10:51:14.125Z,16.33
2022-09-14T10:54:09.320Z,16.49
2022-09-14T10:57:03.579Z,16.82
2022-09-14T10:59:58.642Z,16.47
2022-09-14T11:02:55.793Z,16.66
2022-09-14T11:05:38.114Z,16.90
2022-09-14T11:08:19.148Z,16.92
2022-09-14T11:11:30.431Z,17.37
2022-09-14T11:14:09.255Z,17.20
2022-09-14T11:17:01.888Z,16.90
2022-09-14T11:19:49.973Z,17.08
2022-09-14T11:22:38.292Z,16.74
2022-09-14T11:25:33.373Z,17.23
2022-09-14T11:28:09.809Z,17.26
2022-09-14T11:30:41.386Z,17.33
2022-09-14T11:33:31.394Z,17.26
2022-09-14T11:36:06.533Z,17.12
2022-09-14T11:38:42.117Z,17.24
2022-09-14T11:41:21.599Z,16.97
2022-09-14T11:44:03.676Z,17.17
2022-09-14T11:46:50.398Z,17.13
2022-09-14T11:49:31.548Z,17.43
2022-09-14T11:52:12.345Z,17.37
2022-09-14T11:54:46.693Z,17.31
2022-09-14T11:57:21.296Z,17.42
2022-09-14T11:59:51.509Z,17.17
2022-09-14T12:02:33.038Z,17.66
2022-09-14T12:05:11.649Z,17.35
2022-09-14T12:07:47.327Z,17.78
2022-09-14T12:10:21.353Z,17.26
2022-09-14T12:12:55.336Z,17.30
2022-09-14T12:15:27.068Z,17.54
2022-09-14T12:18:21.122Z,17.65
2022-09-14T12:20:52.705Z,17.64
2022-09-14T12:23:37.310Z,17.65
2022-09-14T12:26:06.825Z,17.62
2022-09-14T12:28:36.789Z,17.52
2022-09-14T12:31:03.434Z,17.25
2022-09-14T12:33:32.924Z,17.42
2022-09-14T12:36:21.914Z,17.37
2022-09-14T12:38:58.594Z,17.31
2022-09-14T12:41:28.662Z,17.25
2022-09-14T12:43:56.014Z,17.06
2022-09-14T12:46:22.771Z,17.49
2022-09-14T12:48:49.589Z,17.57
2022-09-14T12:51:33.709Z,17.81
2022-09-14T12:54:16.762Z,17.77
2022-09-14T12:57:05.451Z,18.15
2022-09-14T12:59:38.427Z,18.49
2022-09-14T13:02:24.003Z,18.96
2022-09-14T13:05:00.412Z,18.20
2022-09-14T13:07:34.153Z,18.43
2022-09-14T13:10:03.853Z,18.20
2022-09-14T13:12:44.684Z,17.69
2022-09-14T13:15:32.336Z,17.75
2022-09-14T13:18:24.881Z,17.82
2022-09-14T13:20:55.682Z,17.76
2022-09-14T13:23:38.386Z,17.66
2022-09-14T13:26:33.860Z,17.86
2022-09-14T13:29:02.357Z,17.80
2022-09-14T13:31:40.809Z,17.58
2022-09-14T13:34:17.923Z,17.71
2022-09-14T13:36:46.852Z,17.72
2022-09-14T13:39:35.753Z,17.16
2022-09-14T13:42:03.190Z,17.22
2022-09-14T13:44:36.487Z,17.13
2022-09-14T13:47:05.584Z,17.03
2022-09-14T13:49:35.510Z,16.76
2022-09-14T13:52:38.514Z,16.72
2022-09-14T13:55:28.974Z,17.09
2022-09-14T13:58:23.363Z,17.17
2022-09-14T14:00:52.948Z,17.11
2022-09-14T14:03:41.121Z,17.10
2022-09-14T14:06:30.113Z,17.03
2022-09-14T14:09:00.183Z,17.12
2022-09-14T14:11:52.424Z,16.90
2022-09-14T14:14:27.622Z,17.16
2022-09-14T14:17:25.277Z,17.12
2022-09-14T14:19:54.642Z,17.15
2022-09-14T14:22:28.460Z,17.29
2022-09-14T14:25:12.981Z,16.88
2022-09-14T14:27:47.843Z,16.77
2022-09-14T14:30:21.424Z,17.04
2022-09-14T14:32:54.886Z,17.07
2022-09-14T14:35:26.359Z,17.06
2022-09-14T14:37:54.615Z,17.19
2022-09-14T14:40:22.067Z,16.83
2022-09-14T14:42:50.376Z,16.70
2022-09-14T14:45:26.753Z,16.97
2022-09-14T14:47:58.193Z,16.82
2022-09-14T14:50:31.079Z,17.17
2022-09-14T14:52:58.470Z,17.09
2022-09-14T14:55:27.380Z,16.96
2022-09-14T14:57:54.005Z,16.72
2022-09-14T15:00:24.089Z,16.61
2022-09-14T15:02:51.554Z,17.02
2022-09-14T15:05:18.549Z,16.80
2022-09-14T15:07:49.823Z,17.03
2022-09-14T15:10:17.230Z,17.15
2022-09-14T15:12:45.789Z,17.03
2022-09-14T15:15:15.340Z,17.32
2022-09-14T15:17:42.597Z,17.24
2022-09-14T15:20:10.216Z,17.20
2022-09-14T15:22:37.622Z,17.12
2022-09-14T15:25:05.684Z,17.20
2022-09-14T15:27:33.021Z,17.04
2022-09-14T15:30:00.004Z,17.12
2022-09-14T15:32:26.762Z,16.93
2022-09-14T15:34:53.559Z,16.86
2022-09-14T15:37:21.878Z,16.79
2022-09-14T15:39:50.592Z,17.04
2022-09-14T15:42:18.381Z,17.04
2022-09-14T15:44:45.474Z,17.16
2022-09-14T15:47:14.844Z,17.23
2022-09-14T15:49:42.560Z,16.79
2022-09-14T15:52:10.910Z,17.02
2022-09-14T15:54:40.460Z,16.93
2022-09-14T15:57:11.137Z,17.20
2022-09-14T15:59:38.133Z,17.54
2022-09-14T16:02:04.898Z,16.97
2022-09-14T16:04:36.771Z,17.22
2022-09-14T16:07:05.454Z,17.03
2022-09-14T16:09:32.017Z,16.94
2022-09-14T16:12:01.804Z,17.10
2022-09-14T16:14:29.907Z,16.59
2022-09-14T16:16:56.718Z,16.70
2022-09-14T16:19:23.611Z,16.93
2022-09-14T16:21:53.556Z,17.03
2022-09-14T16:24:24.114Z,16.78
2022-09-14T16:26:51.211Z,16.74
2022-09-14T16:29:19.627Z,17.22
2022-09-14T16:31:47.919Z,17.33
2022-09-14T16:34:33.801Z,17.40
2022-09-14T16:37:00.483Z,17.06
2022-09-14T16:39:29.753Z,16.43
2022-09-14T16:41:57.230Z,16.29
2022-09-14T16:44:26.328Z,16.91
2022-09-14T16:46:55.053Z,16.72
2022-09-14T16:49:29.075Z,16.78
2022-09-14T16:51:56.986Z,16.79
2022-09-14T16:54:25.647Z,16.79
2022-09-14T16:56:56.047Z,16.57
2022-09-14T16:59:25.829Z,16.63
2022-09-14T17:01:55.031Z,16.64
2022-09-14T17:04:25.461Z,16.56
2022-09-14T17:06:53.211Z,16.61
2022-09-14T17:09:27.230Z,16.67
2022-09-14T17:11:56.441Z,16.56
2022-09-14T17:14:29.422Z,16.49
2022-09-14T17:16:56.645Z,16.51
2022-09-14T17:19:23.931Z,16.37
2022-09-14T17:21:50.897Z,16.44
2022-09-14T17:24:19.363Z,16.36
2022-09-14T17:26:46.333Z,15.83
2022-09-14T17:29:13.651Z,15.99
2022-09-14T17:31:42.562Z,15.94
2022-09-14T17:34:11.108Z,16.00
2022-09-14T17:36:38.190Z,15.78
2022-09-14T17:39:10.697Z,15.83
2022-09-14T17:41:39.364Z,15.75
2022-09-14T17:44:07.382Z,15.69
2022-09-14T17:46:35.365Z,15.58
2022-09-14T17:49:07.938Z,15.72
2022-09-14T17:51:36.344Z,15.71
2022-09-14T17:54:03.257Z,15.29
2022-09-14T17:56:30.402Z,15.30
2022-09-14T17:59:06.986Z,15.49
2022-09-14T18:01:34.588Z,15.37
2022-09-14T18:04:04.762Z,15.45
2022-09-14T18:06:35.617Z,15.26
2022-09-14T18:09:05.448Z,15.41
2022-09-14T18:11:32.402Z,15.38
2022-09-14T18:13:59.612Z,15.38
2022-09-14T18:16:27.416Z,15.19
2022-09-14T18:18:57.113Z,15.10
2022-09-14T18:21:24.493Z,15.44
2022-09-14T18:23:52.397Z,15.20
2022-09-14T18:26:20.036Z,15.12
2022-09-14T18:28:46.922Z,15.18
2022-09-14T18:31:16.016Z,15.47
2022-09-14T18:33:59.177Z,15.46
2022-09-14T18:36:29.010Z,15.43
2022-09-14T18:38:58.211Z,15.47
2022-09-14T18:41:24.862Z,15.34
2022-09-14T18:43:53.170Z,15.53
2022-09-14T18:46:21.652Z,15.44
2022-09-14T18:48:54.813Z,15.45
2022-09-14T18:51:21.874Z,15.40
2022-09-14T18:53:49.084Z,15.45
2022-09-14T18:56:17.559Z,15.40
2022-09-14T18:58:46.273Z,15.28
2022-09-14T19:01:13.776Z,15.43
2022-09-14T19:03:41.855Z,15.28
2022-09-14T19:06:11.505Z,15.42
2022-09-14T19:08:38.238Z,15.38
2022-09-14T19:11:08.900Z,15.30
2022-09-14T19:13:35.741Z,15.32
2022-09-14T19:16:16.657Z,15.58
2022-09-14T19:18:45.132Z,15.44
2022-09-14T19:21:15.407Z,15.48
2022-09-14T19:23:43.220Z,15.50
2022-09-14T19:26:15.075Z,15.39
2022-09-14T19:28:42.446Z,15.07
2022-09-14T19:31:14.270Z,15.20
2022-09-14T19:33:45.336Z,15.49
2022-09-14T19:36:15.648Z,15.73
2022-09-14T19:38:42.811Z,15.22
2022-09-14T19:41:09.777Z,15.42
2022-09-14T19:43:36.391Z,15.15
2022-09-14T19:46:11.866Z,15.27
2022-09-14T19:48:39.084Z,15.15
2022-09-14T19:51:14.614Z,15.19
2022-09-14T19:53:41.975Z,15.16
2022-09-14T19:56:11.813Z,14.94
2022-09-14T19:58:46.776Z,14.98
2022-09-14T20:01:15.066Z,15.18
2022-09-14T20:03:43.530Z,15.08
2022-09-14T20:06:19.402Z,15.33
2022-09-14T20:08:47.355Z,14.80
2022-09-14T20:11:20.152Z,14.77
2022-09-14T20:13:50.369Z,14.80
2022-09-14T20:16:22.938Z,14.92
2022-09-14T20:18:50.940Z,15.02
2022-09-14T20:21:23.677Z,14.80
2022-09-14T20:24:17.743Z,14.93
2022-09-14T20:26:49.197Z,15.00
2022-09-14T20:29:17.696Z,14.79
2022-09-14T20:31:44.945Z,14.84
2022-09-14T20:34:12.790Z,14.57
2022-09-14T20:36:39.760Z,14.76
2022-09-14T20:39:06.389Z,14.85
2022-09-14T20:41:35.223Z,15.06
2022-09-14T20:44:02.278Z,14.73
2022-09-14T20:46:35.005Z,14.81
2022-09-14T20:49:02.968Z,14.77
2022-09-14T20:51:29.820Z,14.53
2022-09-14T20:53:56.482Z,14.78
2022-09-14T20:56:25.851Z,14.62
2022-09-14T20:58:57.923Z,14.76
2022-09-14T21:01:27.273Z,14.74
2022-09-14T21:03:54.403Z,14.80
2022-09-14T21:06:23.363Z,14.67
2022-09-14T21:08:50.308Z,14.58
2022-09-14T21:11:19.846Z,14.57
2022-09-14T21:13:46.861Z,14.59
2022-09-14T21:16:23.270Z,14.19
2022-09-14T21:19:12.107Z,14.54
2022-09-14T21:21:41.274Z,14.25
2022-09-14T21:24:11.412Z,14.29
2022-09-14T21:26:42.360Z,14.71
2022-09-14T21:29:12.862Z,14.33
2022-09-14T21:31:42.323Z,14.52
2022-09-14T21:34:10.619Z,14.63
2022-09-14T21:36:45.693Z,14.51
2022-09-14T21:39:15.707Z,14.18
2022-09-14T21:41:44.725Z,14.31
2022-09-14T21:44:12.682Z,14.01
2022-09-14T21:46:39.485Z,14.27
2022-09-14T21:49:06.081Z,14.64
2022-09-14T21:51:36.133Z,14.58
2022-09-14T21:54:05.884Z,14.69
2022-09-14T21:56:37.134Z,14.66
2022-09-14T21:59:06.876Z,14.71
2022-09-14T22:01:34.161Z,14.53
2022-09-14T22:04:02.150Z,14.67
2022-09-14T22:06:33.434Z,14.75
2022-09-14T22:09:01.108Z,14.68
2022-09-14T22:11:33.689Z,14.73
2022-09-14T22:14:03.088Z,14.66
2022-09-14T22:16:33.432Z,14.35
2022-09-14T22:19:03.992Z,14.59
2022-09-14T22:21:38.782Z,14.44
2022-09-14T22:24:10.782Z,13.96
2022-09-14T22:29:27.949Z,14.03
2022-09-14T22:31:57.415Z,14.23
2022-09-14T22:34:24.497Z,13.92
2022-09-14T22:36:54.352Z,14.07
2022-09-14T22:39:21.244Z,14.08
2022-09-14T22:41:47.839Z,14.01
2022-09-14T22:44:16.880Z,14.26
2022-09-14T22:46:43.920Z,14.49
2022-09-14T22:49:10.544Z,14.45
2022-09-14T22:51:37.559Z,14.42
2022-09-14T22:54:09.871Z,14.50
2022-09-14T22:56:39.453Z,14.34
2022-09-14T22:59:09.076Z,14.38
2022-09-14T23:01:38.984Z,14.08
2022-09-14T23:04:09.733Z,13.93
2022-09-14T23:06:40.179Z,13.88
2022-09-14T23:09:08.704Z,14.08
2022-09-14T23:11:35.791Z,14.37
2022-09-14T23:14:02.383Z,14.06
2022-09-14T23:16:30.240Z,14.03
2022-09-14T23:18:59.551Z,14.22
2022-09-14T23:21:29.500Z,13.98
2022-09-14T23:23:58.523Z,14.24
2022-09-14T23:26:28.729Z,14.26
2022-09-14T23:29:01.112Z,14.24
2022-09-14T23:31:29.765Z,14.39
2022-09-14T23:33:58.927Z,14.08
2022-09-14T23:36:26.332Z,13.98
2022-09-14T23:38:53.487Z,13.99
2022-09-14T23:41:22.305Z,14.13
2022-09-14T23:43:49.530Z,13.76
2022-09-14T23:46:16.964Z,13.47
2022-09-14T23:48:44.522Z,14.07
2022-09-14T23:51:12.331Z,14.05
2022-09-14T23:53:39.814Z,13.83
2022-09-14T23:56:07.305Z,14.14
2022-09-14T23:58:34.490Z,13.52
